CheckWX is a tool to help pilots better visualize weather data.  It is not intended as a substitute for an official pre-flight weather briefing.

12:47:50 UTC

HEGN METAR
Hurghada International Airport
Hurghada, Egypt
Current

2 hours ago

HEGN 191100Z 34017KT CAVOK 35/20 Q1008 NOSIG
Observed
Sep-19 @ 11:00 UTC
Wind
  • 340° at 17 KTS
Visibility
10,000+ meters
Flight Rules
VFR
Cloud Levels
  • Clear skies
Temperature
35°C / 95°F
Dewpoint
20°C / 68°F
Heat Index
38°C / 100°F
Humidity
41%
Altimeter
29.76" Hg
Pressure
1007.92 hPa
Previous

3 hours ago

HEGN 191000Z 33017KT CAVOK 35/19 Q1008 NOSIG
Observed
Sep-19 @ 10:00 UTC
Wind
  • 330° at 17 KTS
Visibility
10,000+ meters
Flight Rules
VFR
Cloud Levels
  • Clear skies
Temperature
35°C / 95°F
Dewpoint
19°C / 66°F
Humidity
39%
Altimeter
29.76" Hg
Pressure
1007.92 hPa
Previous

4 hours ago

HEGN 190900Z 34018KT CAVOK 34/19 Q1009 NOSIG
Observed
Sep-19 @ 09:00 UTC
Wind
  • 340° at 18 KTS
Visibility
10,000+ meters
Flight Rules
VFR
Cloud Levels
  • Clear skies
Temperature
34°C / 93°F
Dewpoint
19°C / 66°F
Heat Index
36°C / 96°F
Humidity
41%
Altimeter
29.79" Hg
Pressure
1008.92 hPa